createdAt,value
2018-11-25T08:54:54.973Z,191.25
2018-11-25T08:55:54.164Z,174.38
2018-11-25T08:56:54.165Z,146.25
2018-11-25T08:57:54.139Z,129.38
2018-11-25T08:58:54.131Z,118.12
2018-11-25T08:59:54.116Z,112.50
2018-11-25T09:00:54.105Z,106.88
2018-11-25T09:01:54.113Z,106.88
2018-11-25T09:02:54.084Z,106.88
2018-11-25T09:03:54.075Z,112.50
2018-11-25T09:04:54.073Z,112.50
2018-11-25T09:05:54.050Z,118.12
2018-11-25T09:06:54.053Z,118.12
2018-11-25T09:07:54.026Z,118.12
2018-11-25T09:08:54.007Z,112.50
2018-11-25T09:09:54.003Z,118.12
2018-11-25T09:10:53.992Z,123.75
2018-11-25T09:11:54.008Z,123.75
2018-11-25T09:12:56.083Z,123.75
2018-11-25T09:13:53.962Z,123.75
2018-11-25T09:14:53.948Z,123.75
2018-11-25T09:15:53.945Z,118.12
2018-11-25T09:16:53.941Z,112.50
2018-11-25T09:17:53.920Z,101.25
2018-11-25T09:18:53.912Z,90.00
2018-11-25T09:19:53.895Z,84.38
2018-11-25T09:20:53.885Z,73.12
2018-11-25T09:21:53.888Z,67.50
2018-11-25T09:22:53.865Z,67.50
2018-11-25T09:23:53.863Z,61.88
2018-11-25T09:24:53.841Z,67.50
2018-11-25T09:25:53.828Z,73.12
2018-11-25T09:26:53.832Z,78.75
2018-11-25T09:27:53.804Z,73.12
2018-11-25T09:28:53.793Z,56.25
2018-11-25T09:29:53.786Z,56.25
2018-11-25T09:30:53.772Z,50.62
2018-11-25T09:31:53.771Z,56.25
2018-11-25T09:32:53.740Z,61.88
2018-11-25T09:33:53.736Z,67.50
2018-11-25T09:34:53.727Z,78.75
2018-11-25T09:35:53.716Z,84.38
2018-11-25T09:36:53.715Z,90.00
2018-11-25T09:37:53.692Z,90.00
2018-11-25T09:38:53.680Z,90.00
2018-11-25T09:39:53.669Z,84.38
2018-11-25T09:40:59.172Z,84.38
2018-11-25T09:41:54.660Z,84.38
2018-11-25T09:42:53.635Z,78.75
2018-11-25T09:43:53.626Z,73.12
2018-11-25T09:44:53.612Z,67.50
2018-11-25T09:45:53.604Z,61.88
2018-11-25T09:46:53.607Z,61.88
2018-11-25T09:47:53.580Z,67.50
2018-11-25T09:48:53.569Z,78.75
2018-11-25T09:49:53.558Z,84.38
2018-11-25T09:50:53.549Z,78.75
2018-11-25T09:51:53.550Z,78.75
2018-11-25T09:52:53.533Z,78.75
2018-11-25T09:53:53.511Z,84.38
2018-11-25T09:54:53.489Z,84.38
2018-11-25T09:55:53.497Z,84.38
2018-11-25T09:56:53.489Z,84.38
2018-11-25T09:57:53.467Z,84.38
2018-11-25T09:58:53.456Z,84.38
2018-11-25T09:59:53.444Z,90.00
2018-11-25T10:00:53.430Z,90.00
2018-11-25T10:01:53.433Z,90.00
2018-11-25T10:02:53.409Z,90.00
2018-11-25T10:03:53.399Z,90.00
2018-11-25T10:04:53.389Z,90.00
2018-11-25T10:05:53.381Z,90.00
2018-11-25T10:06:53.393Z,90.00
2018-11-25T10:07:53.353Z,95.62
2018-11-25T10:08:53.342Z,95.62
2018-11-25T10:09:53.333Z,84.38
2018-11-25T10:10:53.365Z,84.38
2018-11-25T10:11:55.519Z,84.38
2018-11-25T10:12:53.300Z,84.38
2018-11-25T10:13:53.285Z,90.00
2018-11-25T10:14:53.279Z,95.62
2018-11-25T10:15:53.268Z,106.88
2018-11-25T10:16:53.254Z,112.50
2018-11-25T10:17:59.447Z,112.50
2018-11-25T10:18:54.235Z,112.50
2018-11-25T10:19:53.228Z,112.50
2018-11-25T10:20:53.212Z,112.50
2018-11-25T10:21:53.197Z,118.12
2018-11-25T10:22:53.201Z,129.38
2018-11-25T10:23:53.175Z,140.62
2018-11-25T10:24:53.162Z,146.25
2018-11-25T10:25:53.155Z,151.88
2018-11-25T10:26:53.145Z,157.50
2018-11-25T10:27:53.142Z,163.12
2018-11-25T10:28:53.270Z,157.50
2018-11-25T10:29:55.078Z,146.25
2018-11-25T10:30:53.102Z,146.25
2018-11-25T10:31:53.084Z,146.25
2018-11-25T10:32:53.087Z,140.62
2018-11-25T10:33:53.064Z,151.88
2018-11-25T10:34:53.050Z,157.50
2018-11-25T10:35:53.037Z,157.50
2018-11-25T10:36:53.026Z,157.50
2018-11-25T10:37:53.039Z,157.50
2018-11-25T10:38:53.005Z,151.88
2018-11-25T10:39:52.995Z,135.00
2018-11-25T10:40:52.982Z,135.00
2018-11-25T10:41:52.971Z,140.62
2018-11-25T10:42:52.989Z,140.62
2018-11-25T10:43:52.947Z,123.75
2018-11-25T10:44:52.937Z,112.50
2018-11-25T10:45:52.925Z,106.88
2018-11-25T10:46:52.926Z,106.88
2018-11-25T10:47:52.918Z,106.88
2018-11-25T10:48:52.891Z,112.50
2018-11-25T10:49:52.884Z,106.88
2018-11-25T10:50:52.874Z,101.25
2018-11-25T10:51:52.862Z,101.25
2018-11-25T10:52:52.865Z,101.25
2018-11-25T10:53:52.840Z,95.62
2018-11-25T10:54:52.828Z,84.38
2018-11-25T10:55:52.818Z,84.38
2018-11-25T10:56:52.808Z,78.75
2018-11-25T10:57:52.801Z,78.75
2018-11-25T10:58:52.782Z,78.75
2018-11-25T10:59:52.777Z,78.75
2018-11-25T11:00:52.760Z,78.75
2018-11-25T11:01:52.750Z,84.38
2018-11-25T11:02:52.749Z,84.38
2018-11-25T11:03:52.726Z,90.00
2018-11-25T11:04:52.714Z,90.00
2018-11-25T11:05:52.703Z,90.00
2018-11-25T11:06:52.715Z,95.62
2018-11-25T11:07:52.697Z,95.62
2018-11-25T11:08:52.670Z,101.25
2018-11-25T11:09:52.662Z,106.88
2018-11-25T11:10:52.643Z,118.12
2018-11-25T11:11:52.644Z,129.38
2018-11-25T11:12:52.636Z,135.00
2018-11-25T11:13:52.617Z,151.88
2018-11-25T11:14:52.617Z,157.50
2018-11-25T11:15:52.590Z,157.50
2018-11-25T11:16:53.986Z,146.25
2018-11-25T11:17:52.585Z,157.50
2018-11-25T11:18:52.561Z,163.12
2018-11-25T11:19:52.545Z,168.75
2018-11-25T11:20:52.534Z,174.38
2018-11-25T11:21:52.523Z,180.00
2018-11-25T11:22:52.544Z,163.12
2018-11-25T11:23:52.563Z,151.88
2018-11-25T11:24:52.490Z,151.88
2018-11-25T11:25:52.482Z,157.50
2018-11-25T11:26:52.467Z,151.88
2018-11-25T11:27:52.473Z,146.25
2018-11-25T11:28:52.443Z,151.88
2018-11-25T11:29:52.433Z,151.88
2018-11-25T11:30:52.421Z,151.88
2018-11-25T11:31:52.415Z,151.88
2018-11-25T11:32:52.413Z,151.88
2018-11-25T11:33:52.389Z,151.88
2018-11-25T11:34:52.377Z,157.50
2018-11-25T11:35:52.376Z,163.12
2018-11-25T11:36:52.362Z,163.12
2018-11-25T11:37:52.373Z,157.50
2018-11-25T11:38:52.331Z,157.50
2018-11-25T11:39:52.325Z,157.50
2018-11-25T11:40:52.308Z,157.50
2018-11-25T11:41:52.294Z,163.12
2018-11-25T11:42:52.301Z,163.12
2018-11-25T11:43:52.308Z,163.12
2018-11-25T11:44:52.269Z,157.50
2018-11-25T11:45:52.257Z,151.88
2018-11-25T11:46:52.241Z,151.88
2018-11-25T11:47:52.250Z,140.62
2018-11-25T11:48:52.224Z,140.62
2018-11-25T11:49:52.216Z,140.62
2018-11-25T11:50:52.196Z,140.62
2018-11-25T11:51:52.194Z,140.62
2018-11-25T11:52:52.239Z,140.62
2018-11-25T11:53:52.191Z,135.00
2018-11-25T11:54:52.154Z,135.00
2018-11-25T11:55:52.144Z,135.00
2018-11-25T11:56:52.145Z,135.00
2018-11-25T11:57:52.151Z,135.00
2018-11-25T11:58:52.159Z,135.00
2018-11-25T11:59:52.107Z,135.00
2018-11-25T12:00:52.096Z,129.38
2018-11-25T12:01:52.080Z,123.75
2018-11-25T12:02:52.085Z,118.12
2018-11-25T12:03:52.062Z,118.12
2018-11-25T12:04:52.046Z,112.50
2018-11-25T12:05:52.032Z,112.50
2018-11-25T12:06:52.028Z,112.50
2018-11-25T12:07:52.038Z,112.50
2018-11-25T12:08:52.002Z,118.12
2018-11-25T12:09:51.990Z,118.12
2018-11-25T12:10:51.980Z,118.12
2018-11-25T12:11:51.970Z,118.12
2018-11-25T12:12:51.968Z,123.75
2018-11-25T12:13:51.953Z,123.75
2018-11-25T12:14:51.934Z,129.38
2018-11-25T12:15:51.923Z,129.38
2018-11-25T12:16:51.917Z,135.00
2018-11-25T12:17:51.931Z,135.00
2018-11-25T12:18:51.894Z,135.00
2018-11-25T12:19:51.882Z,129.38
2018-11-25T12:20:51.867Z,129.38
2018-11-25T12:21:58.122Z,129.38
2018-11-25T12:22:52.883Z,123.75
2018-11-25T12:23:51.832Z,123.75
2018-11-25T12:24:51.821Z,129.38
2018-11-25T12:25:51.815Z,135.00
2018-11-25T12:26:51.807Z,135.00
2018-11-25T12:27:51.787Z,129.38
2018-11-25T12:28:55.843Z,129.38
2018-11-25T12:29:51.764Z,129.38
2018-11-25T12:30:51.763Z,129.38
2018-11-25T12:31:51.738Z,129.38
2018-11-25T12:32:51.724Z,129.38
2018-11-25T12:33:53.917Z,123.75
2018-11-25T12:34:51.706Z,123.75
2018-11-25T12:35:53.690Z,118.12
2018-11-25T12:36:51.712Z,112.50
2018-11-25T12:37:51.679Z,106.88
2018-11-25T12:38:51.679Z,106.88
2018-11-25T12:39:51.653Z,112.50
2018-11-25T12:40:51.640Z,118.12
2018-11-25T12:41:51.633Z,118.12
2018-11-25T12:42:51.618Z,118.12
2018-11-25T12:43:51.641Z,118.12
2018-11-25T12:44:51.596Z,123.75
2018-11-25T12:45:51.585Z,123.75
2018-11-25T12:46:51.574Z,118.12
2018-11-25T12:47:51.566Z,112.50
2018-11-25T12:48:53.573Z,101.25
2018-11-25T12:49:51.547Z,95.62
2018-11-25T12:50:51.530Z,90.00
2018-11-25T12:51:51.516Z,90.00
2018-11-25T12:52:51.512Z,90.00
2018-11-25T12:53:51.514Z,90.00
2018-11-25T12:54:51.482Z,90.00
2018-11-25T12:55:51.469Z,90.00
2018-11-25T12:56:51.892Z,90.00
2018-11-25T12:57:51.448Z,90.00
2018-11-25T12:58:51.458Z,90.00
2018-11-25T12:59:51.426Z,90.00
2018-11-25T13:00:51.416Z,90.00
2018-11-25T13:01:51.406Z,95.62
2018-11-25T13:02:51.391Z,95.62
2018-11-25T13:03:51.400Z,95.62
2018-11-25T13:04:51.373Z,95.62
2018-11-25T13:05:51.371Z,95.62
2018-11-25T13:06:51.342Z,90.00
2018-11-25T13:07:51.354Z,90.00
2018-11-25T13:08:51.352Z,84.38
2018-11-25T13:09:51.312Z,78.75
2018-11-25T13:10:51.306Z,78.75
2018-11-25T13:11:52.531Z,78.75
2018-11-25T13:12:51.290Z,78.75
2018-11-25T13:13:51.300Z,78.75
2018-11-25T13:14:51.261Z,78.75
2018-11-25T13:15:51.244Z,78.75
2018-11-25T13:16:51.233Z,78.75
2018-11-25T13:17:51.227Z,78.75
2018-11-25T13:18:51.228Z,78.75
2018-11-25T13:19:51.202Z,78.75
2018-11-25T13:20:51.189Z,73.12
2018-11-25T13:21:51.178Z,73.12
2018-11-25T13:22:51.174Z,67.50
2018-11-25T13:23:51.174Z,67.50
2018-11-25T13:24:51.144Z,67.50
2018-11-25T13:25:51.146Z,67.50
2018-11-25T13:26:51.118Z,61.88
2018-11-25T13:27:51.138Z,61.88
2018-11-25T13:28:51.127Z,61.88
2018-11-25T13:29:51.101Z,61.88
2018-11-25T13:30:51.076Z,61.88
2018-11-25T13:31:51.069Z,61.88
2018-11-25T13:32:51.053Z,61.88
2018-11-25T13:33:51.071Z,61.88
2018-11-25T13:34:51.036Z,61.88
2018-11-25T13:35:51.026Z,56.25
2018-11-25T13:36:51.013Z,56.25
2018-11-25T13:37:50.994Z,50.62
2018-11-25T13:38:51.012Z,50.62
2018-11-25T13:39:50.981Z,45.00
2018-11-25T13:40:50.991Z,45.00
2018-11-25T13:41:50.956Z,45.00
2018-11-25T13:42:50.950Z,50.62
2018-11-25T13:43:50.958Z,50.62
2018-11-25T13:44:50.922Z,50.62
2018-11-25T13:45:50.923Z,50.62
2018-11-25T13:46:50.903Z,45.00
2018-11-25T13:47:50.889Z,50.62
2018-11-25T13:48:50.894Z,50.62
2018-11-25T13:49:50.871Z,50.62
2018-11-25T13:50:50.855Z,50.62
2018-11-25T13:51:50.861Z,50.62
2018-11-25T13:52:50.840Z,50.62
2018-11-25T13:53:50.853Z,50.62
2018-11-25T13:54:50.829Z,50.62
2018-11-25T13:55:50.818Z,45.00
2018-11-25T13:56:50.792Z,45.00
2018-11-25T13:57:50.776Z,45.00
2018-11-25T13:58:50.781Z,45.00
2018-11-25T13:59:50.753Z,45.00
2018-11-25T14:00:50.758Z,45.00
2018-11-25T14:01:50.732Z,45.00
2018-11-25T14:02:50.732Z,45.00
2018-11-25T14:03:50.724Z,45.00
2018-11-25T14:04:50.692Z,45.00
2018-11-25T14:05:53.199Z,45.00
2018-11-25T14:06:50.674Z,45.00
2018-11-25T14:07:50.658Z,39.38
2018-11-25T14:08:50.674Z,39.38
2018-11-25T14:09:50.641Z,39.38
2018-11-25T14:10:50.628Z,39.38
2018-11-25T14:11:50.626Z,33.75
2018-11-25T14:12:50.610Z,33.75
2018-11-25T14:13:50.633Z,33.75
2018-11-25T14:14:50.584Z,33.75
2018-11-25T14:15:50.577Z,33.75
2018-11-25T14:16:50.564Z,33.75
2018-11-25T14:17:50.561Z,28.12
2018-11-25T14:18:50.556Z,28.12
2018-11-25T14:19:50.530Z,28.12
2018-11-25T14:20:50.520Z,28.12
2018-11-25T14:21:50.520Z,22.50
2018-11-25T14:22:50.490Z,22.50
2018-11-25T14:23:50.477Z,22.50
2018-11-25T14:24:50.481Z,22.50
2018-11-25T14:25:50.455Z,22.50
2018-11-25T14:26:50.444Z,22.50
2018-11-25T14:27:50.433Z,22.50
2018-11-25T14:28:50.422Z,22.50
2018-11-25T14:29:50.423Z,22.50
2018-11-25T14:30:50.403Z,22.50
2018-11-25T14:31:50.481Z,22.50
2018-11-25T14:32:50.378Z,16.88
2018-11-25T14:33:50.366Z,16.88
2018-11-25T14:34:50.366Z,16.88
2018-11-25T14:35:50.342Z,16.88
2018-11-25T14:36:50.332Z,16.88
2018-11-25T14:37:50.323Z,16.88
2018-11-25T14:38:50.309Z,16.88
2018-11-25T14:39:50.322Z,16.88
2018-11-25T14:40:50.288Z,16.88
2018-11-25T14:41:50.339Z,16.88
2018-11-25T14:42:50.267Z,16.88
2018-11-25T14:43:50.253Z,16.88
2018-11-25T14:44:50.258Z,16.88
2018-11-25T14:45:50.231Z,16.88
2018-11-25T14:46:50.287Z,16.88
2018-11-25T14:47:50.242Z,11.25
2018-11-25T14:48:50.196Z,11.25
2018-11-25T14:49:50.197Z,11.25
2018-11-25T14:50:50.179Z,11.25
2018-11-25T14:51:50.161Z,11.25
2018-11-25T14:52:50.153Z,11.25
2018-11-25T14:53:52.980Z,11.25
2018-11-25T14:54:51.359Z,11.25
2018-11-25T14:55:50.128Z,11.25
2018-11-25T14:56:50.105Z,11.25
2018-11-25T14:57:50.093Z,11.25
2018-11-25T14:58:50.084Z,11.25
2018-11-25T14:59:50.087Z,5.62
2018-11-25T15:00:50.139Z,5.62
2018-11-25T15:01:50.053Z,5.62
2018-11-25T15:02:50.041Z,5.62
2018-11-25T15:03:50.026Z,5.62
2018-11-25T15:04:50.032Z,5.62
2018-11-25T15:05:50.042Z,5.62
2018-11-25T15:06:49.998Z,5.62
2018-11-25T15:07:49.984Z,5.62
2018-11-25T15:08:49.973Z,5.62
2018-11-25T15:09:49.975Z,5.62
2018-11-25T15:10:49.950Z,5.62
2018-11-25T15:11:49.940Z,5.62
2018-11-25T15:12:49.964Z,0.00
2018-11-25T15:13:49.917Z,0.00
2018-11-25T15:14:49.917Z,0.00
2018-11-25T15:15:49.905Z,0.00
2018-11-25T15:16:49.885Z,0.00
2018-11-25T15:17:49.871Z,0.00
2018-11-25T15:18:50.165Z,0.00
2018-11-25T15:19:49.885Z,0.00
2018-11-25T15:20:49.841Z,0.00
2018-11-25T15:21:49.828Z,0.00
2018-11-25T15:22:49.840Z,0.00
2018-11-25T15:23:49.805Z,0.00
2018-11-25T15:24:49.805Z,0.00
2018-11-25T15:25:51.057Z,0.00
2018-11-25T15:26:49.841Z,0.00
2018-11-25T15:27:49.759Z,0.00
2018-11-25T15:28:49.749Z,0.00
2018-11-25T15:29:49.754Z,0.00
2018-11-25T15:30:49.811Z,0.00
2018-11-25T15:31:49.715Z,0.00
2018-11-25T15:32:49.703Z,0.00
2018-11-25T15:33:49.693Z,0.00
2018-11-25T15:34:49.776Z,0.00
2018-11-25T15:35:49.689Z,0.00
2018-11-25T15:36:49.681Z,0.00
2018-11-25T15:37:49.652Z,0.00
2018-11-25T15:38:49.637Z,0.00
2018-11-25T15:39:49.637Z,0.00
2018-11-25T15:40:49.612Z,0.00
2018-11-25T15:41:51.688Z,0.00
2018-11-25T15:42:49.628Z,0.00
2018-11-25T15:43:49.579Z,0.00
2018-11-25T15:44:49.712Z,0.00
2018-11-25T15:45:51.454Z,0.00
2018-11-25T15:46:51.261Z,0.00
2018-11-25T15:47:49.576Z,0.00
2018-11-25T15:48:49.774Z,0.00
2018-11-25T15:49:49.573Z,0.00
2018-11-25T15:50:49.505Z,0.00
2018-11-25T15:51:49.527Z,0.00
2018-11-25T15:52:49.477Z,0.00
2018-11-25T15:53:49.466Z,0.00
2018-11-25T15:54:49.471Z,0.00
2018-11-25T15:55:49.456Z,0.00
2018-11-25T15:56:49.434Z,0.00
2018-11-25T15:57:49.423Z,0.00
2018-11-25T15:58:49.410Z,0.00
2018-11-25T15:59:49.427Z,0.00
2018-11-25T16:00:49.388Z,0.00
2018-11-25T16:01:49.377Z,0.00
2018-11-25T16:02:49.366Z,0.00
2018-11-25T16:03:49.375Z,0.00
2018-11-25T16:04:49.360Z,0.00
2018-11-25T16:05:49.335Z,0.00
2018-11-25T16:06:49.324Z,0.00
2018-11-25T16:07:49.325Z,0.00
2018-11-25T16:08:49.306Z,0.00
2018-11-25T16:09:49.300Z,0.00
2018-11-25T16:10:49.281Z,0.00
2018-11-25T16:11:49.281Z,0.00
2018-11-25T16:12:49.274Z,0.00
2018-11-25T16:13:49.250Z,0.00
2018-11-25T16:14:51.838Z,0.00
2018-11-25T16:15:49.387Z,0.00
2018-11-25T16:16:49.447Z,0.00
2018-11-25T16:17:49.588Z,0.00
2018-11-25T16:18:50.027Z,0.00
2018-11-25T16:19:52.714Z,0.00
2018-11-25T16:20:49.903Z,0.00
2018-11-25T16:21:49.417Z,0.00
2018-11-25T16:22:49.344Z,0.00
2018-11-25T16:23:49.397Z,0.00
2018-11-25T16:24:51.197Z,0.00
2018-11-25T16:25:49.124Z,0.00
2018-11-25T16:26:51.313Z,0.00
2018-11-25T16:27:49.357Z,0.00
2018-11-25T16:28:49.103Z,0.00
2018-11-25T16:29:49.362Z,0.00
2018-11-25T16:30:49.729Z,0.00
2018-11-25T16:31:51.314Z,0.00
2018-11-25T16:32:50.789Z,0.00
2018-11-25T16:33:50.232Z,0.00
2018-11-25T16:34:49.305Z,0.00
2018-11-25T16:35:55.004Z,0.00
2018-11-25T16:36:49.242Z,0.00
2018-11-25T16:37:51.248Z,0.00
2018-11-25T16:38:49.169Z,0.00
2018-11-25T16:39:49.467Z,0.00
2018-11-25T16:40:49.745Z,0.00
2018-11-25T16:41:49.223Z,0.00
2018-11-25T16:42:49.169Z,0.00
2018-11-25T16:43:49.654Z,0.00
2018-11-25T16:44:50.403Z,0.00
2018-11-25T16:45:50.508Z,0.00
2018-11-25T16:46:50.749Z,0.00
2018-11-25T16:47:49.113Z,0.00
2018-11-25T16:48:49.247Z,0.00
2018-11-25T16:49:49.072Z,0.00
2018-11-25T16:50:51.021Z,0.00
2018-11-25T16:51:49.721Z,0.00
2018-11-25T16:52:49.085Z,0.00
2018-11-25T16:53:49.884Z,0.00
2018-11-25T16:54:49.170Z,0.00
2018-11-25T16:55:52.139Z,0.00
2018-11-25T16:56:49.872Z,0.00
2018-11-25T16:57:51.077Z,0.00
2018-11-25T16:58:50.991Z,0.00
2018-11-25T16:59:48.739Z,0.00
2018-11-25T17:00:48.749Z,0.00
2018-11-25T17:01:48.709Z,0.00
2018-11-25T17:02:48.716Z,0.00
2018-11-25T17:03:48.685Z,0.00
2018-11-25T17:04:48.684Z,0.00
2018-11-25T17:05:50.510Z,0.00
2018-11-25T17:06:48.651Z,0.00
2018-11-25T17:07:48.654Z,0.00
2018-11-25T17:08:48.636Z,0.00
2018-11-25T17:09:48.627Z,0.00
2018-11-25T17:10:48.624Z,0.00
2018-11-25T17:11:50.614Z,0.00
2018-11-25T17:12:48.590Z,0.00
2018-11-25T17:13:48.573Z,0.00
2018-11-25T17:14:48.562Z,0.00
2018-11-25T17:15:48.567Z,0.00
2018-11-25T17:16:48.536Z,0.00
2018-11-25T17:17:49.031Z,0.00
2018-11-25T17:18:48.521Z,0.00
2018-11-25T17:19:48.505Z,0.00
2018-11-25T17:20:48.576Z,0.00
2018-11-25T17:21:48.487Z,0.00
2018-11-25T17:22:48.490Z,0.00
2018-11-25T17:23:48.466Z,0.00
2018-11-25T17:24:48.449Z,0.00
2018-11-25T17:25:48.465Z,0.00
2018-11-25T17:26:48.446Z,0.00
2018-11-25T17:27:48.417Z,0.00
2018-11-25T17:28:48.412Z,0.00
2018-11-25T17:29:48.396Z,0.00
2018-11-25T17:30:53.341Z,0.00
2018-11-25T17:31:49.586Z,0.00
2018-11-25T17:32:48.407Z,0.00
2018-11-25T17:33:50.742Z,0.00
2018-11-25T17:34:48.569Z,0.00
2018-11-25T17:35:48.932Z,0.00
2018-11-25T17:36:50.597Z,0.00
2018-11-25T17:37:50.420Z,0.00
2018-11-25T17:38:50.333Z,0.00
2018-11-25T17:39:48.941Z,0.00
2018-11-25T17:40:48.948Z,0.00
2018-11-25T17:41:48.256Z,0.00
2018-11-25T17:42:48.245Z,0.00
2018-11-25T17:43:49.096Z,0.00
2018-11-25T17:44:48.216Z,0.00
2018-11-25T17:45:49.268Z,0.00
2018-11-25T17:46:48.201Z,0.00
2018-11-25T17:47:48.192Z,0.00
2018-11-25T17:48:48.178Z,0.00
2018-11-25T17:49:48.168Z,0.00
2018-11-25T17:50:48.166Z,0.00
2018-11-25T17:51:48.145Z,0.00
2018-11-25T17:52:48.134Z,0.00
2018-11-25T17:53:48.122Z,0.00
2018-11-25T17:54:48.111Z,0.00
2018-11-25T17:55:48.112Z,0.00
2018-11-25T17:56:48.088Z,0.00
2018-11-25T17:57:48.077Z,0.00
2018-11-25T17:58:48.065Z,0.00
2018-11-25T17:59:48.054Z,0.00
2018-11-25T18:00:48.056Z,0.00
2018-11-25T18:01:48.033Z,0.00
2018-11-25T18:02:48.021Z,0.00
2018-11-25T18:03:48.004Z,0.00
2018-11-25T18:04:47.997Z,0.00
2018-11-25T18:05:48.004Z,0.00
2018-11-25T18:06:47.976Z,0.00
2018-11-25T18:07:47.965Z,0.00
2018-11-25T18:08:47.953Z,0.00
2018-11-25T18:09:47.948Z,0.00
2018-11-25T18:10:47.949Z,0.00
2018-11-25T18:11:47.926Z,0.00
2018-11-25T18:12:47.912Z,0.00
2018-11-25T18:13:47.897Z,0.00
2018-11-25T18:14:47.885Z,0.00
2018-11-25T18:15:47.889Z,0.00
2018-11-25T18:16:47.863Z,0.00
2018-11-25T18:17:47.855Z,0.00
2018-11-25T18:18:47.839Z,0.00
2018-11-25T18:19:47.828Z,0.00
2018-11-25T18:20:47.832Z,0.00
2018-11-25T18:21:47.804Z,0.00
2018-11-25T18:22:47.829Z,0.00
2018-11-25T18:23:47.783Z,0.00
2018-11-25T18:24:47.772Z,0.00
2018-11-25T18:25:47.797Z,0.00
2018-11-25T18:26:47.753Z,0.00
2018-11-25T18:27:47.744Z,0.00
2018-11-25T18:28:47.733Z,0.00
2018-11-25T18:29:47.719Z,0.00
2018-11-25T18:30:47.760Z,0.00
2018-11-25T18:31:47.697Z,0.00
2018-11-25T18:32:47.689Z,0.00
2018-11-25T18:33:47.673Z,0.00
2018-11-25T18:34:47.663Z,0.00
2018-11-25T18:35:47.660Z,0.00
2018-11-25T18:36:47.655Z,0.00
2018-11-25T18:37:47.625Z,0.00
2018-11-25T18:38:47.620Z,0.00
2018-11-25T18:39:47.607Z,0.00
2018-11-25T18:40:47.594Z,0.00
2018-11-25T18:41:47.596Z,0.00
2018-11-25T18:42:47.636Z,0.00
2018-11-25T18:43:47.562Z,0.00
2018-11-25T18:44:47.552Z,0.00
2018-11-25T18:45:47.539Z,0.00
2018-11-25T18:46:48.416Z,0.00
2018-11-25T18:47:47.520Z,0.00
2018-11-25T18:48:47.506Z,0.00
2018-11-25T18:49:47.493Z,0.00
2018-11-25T18:50:47.484Z,0.00
2018-11-25T18:51:47.486Z,0.00
2018-11-25T18:52:47.460Z,0.00
2018-11-25T18:53:48.457Z,0.00
2018-11-25T18:54:47.438Z,0.00
2018-11-25T18:55:47.427Z,0.00
2018-11-25T18:56:47.432Z,0.00
2018-11-25T18:57:47.404Z,0.00
2018-11-25T18:58:47.392Z,0.00
2018-11-25T18:59:47.380Z,0.00
2018-11-25T19:00:47.371Z,0.00
2018-11-25T19:01:47.370Z,0.00
2018-11-25T19:02:47.345Z,0.00
2018-11-25T19:03:47.334Z,0.00
2018-11-25T19:04:47.324Z,0.00
2018-11-25T19:05:47.313Z,0.00
2018-11-25T19:06:47.317Z,0.00
2018-11-25T19:07:47.294Z,0.00
2018-11-25T19:08:47.282Z,0.00
2018-11-25T19:09:47.269Z,0.00
2018-11-25T19:10:47.257Z,0.00
2018-11-25T19:11:47.408Z,0.00
2018-11-25T19:12:47.234Z,0.00
2018-11-25T19:13:47.338Z,0.00
2018-11-25T19:14:47.233Z,0.00
2018-11-25T19:15:47.206Z,0.00
2018-11-25T19:16:47.205Z,0.00
2018-11-25T19:17:47.866Z,0.00
2018-11-25T19:18:49.140Z,0.00
2018-11-25T19:19:47.163Z,0.00
2018-11-25T19:20:47.255Z,0.00
2018-11-25T19:21:51.146Z,0.00
2018-11-25T19:22:47.271Z,0.00
2018-11-25T19:23:47.113Z,0.00
2018-11-25T19:24:47.164Z,0.00
2018-11-25T19:25:47.090Z,0.00
2018-11-25T19:26:47.099Z,0.00
2018-11-25T19:27:47.133Z,0.00
2018-11-25T19:28:47.078Z,0.00
2018-11-25T19:29:47.039Z,0.00
2018-11-25T19:30:47.244Z,0.00
2018-11-25T19:31:47.923Z,0.00
2018-11-25T19:32:47.004Z,0.00
2018-11-25T19:33:47.002Z,0.00
2018-11-25T19:34:46.989Z,0.00
2018-11-25T19:35:46.979Z,0.00
2018-11-25T19:36:46.975Z,0.00
2018-11-25T19:37:46.957Z,0.00
2018-11-25T19:38:46.946Z,0.00
2018-11-25T19:39:46.968Z,0.00
2018-11-25T19:40:46.923Z,0.00
2018-11-25T19:41:46.927Z,0.00
2018-11-25T19:42:46.900Z,0.00
2018-11-25T19:43:46.883Z,0.00
2018-11-25T19:44:46.880Z,0.00
2018-11-25T19:45:46.866Z,0.00
2018-11-25T19:46:46.870Z,0.00
2018-11-25T19:47:48.693Z,0.00
2018-11-25T19:48:46.829Z,0.00
2018-11-25T19:49:48.168Z,0.00
2018-11-25T19:50:46.861Z,0.00
2018-11-25T19:51:46.810Z,0.00
2018-11-25T19:52:46.775Z,0.00
2018-11-25T19:53:48.740Z,0.00
2018-11-25T19:54:46.764Z,0.00
2018-11-25T19:55:46.753Z,0.00
2018-11-25T19:56:46.756Z,0.00
2018-11-25T19:57:46.729Z,0.00
2018-11-25T19:58:46.717Z,0.00
2018-11-25T19:59:48.830Z,0.00
2018-11-25T20:00:46.703Z,0.00
2018-11-25T20:01:46.697Z,0.00
2018-11-25T20:02:47.408Z,0.00
2018-11-25T20:03:46.793Z,0.00
2018-11-25T20:04:46.651Z,0.00
2018-11-25T20:05:46.640Z,0.00
2018-11-25T20:06:48.703Z,0.00
2018-11-25T20:07:46.631Z,0.00
2018-11-25T20:08:46.611Z,0.00
2018-11-25T20:09:46.629Z,0.00
2018-11-25T20:10:48.613Z,0.00
2018-11-25T20:11:46.589Z,0.00
2018-11-25T20:12:46.602Z,0.00
2018-11-25T20:13:46.554Z,0.00
2018-11-25T20:14:46.535Z,0.00
2018-11-25T20:15:46.531Z,0.00
2018-11-25T20:16:46.536Z,0.00
2018-11-25T20:17:54.021Z,0.00
2018-11-25T20:18:47.498Z,0.00
2018-11-25T20:19:46.577Z,0.00
2018-11-25T20:20:46.514Z,0.00
2018-11-25T20:21:48.244Z,0.00
2018-11-25T20:22:46.452Z,0.00
2018-11-25T20:23:46.544Z,0.00
2018-11-25T20:24:46.492Z,0.00
2018-11-25T20:25:46.417Z,0.00
2018-11-25T20:26:46.423Z,0.00
2018-11-25T20:27:46.874Z,0.00
2018-11-25T20:28:50.029Z,0.00
2018-11-25T20:29:46.584Z,0.00
2018-11-25T20:30:46.362Z,0.00
2018-11-25T20:31:48.398Z,0.00
2018-11-25T20:32:49.227Z,0.00
2018-11-25T20:33:52.416Z,0.00
2018-11-25T20:34:47.316Z,0.00
2018-11-25T20:35:46.307Z,0.00
2018-11-25T20:36:46.294Z,0.00
2018-11-25T20:37:46.299Z,0.00
2018-11-25T20:38:46.272Z,0.00
2018-11-25T20:39:46.264Z,0.00
2018-11-25T20:40:46.251Z,0.00
2018-11-25T20:41:46.238Z,0.00
2018-11-25T20:42:46.239Z,0.00
2018-11-25T20:43:46.218Z,0.00
2018-11-25T20:44:46.222Z,0.00
2018-11-25T20:45:46.193Z,0.00
2018-11-25T20:46:47.236Z,0.00
2018-11-25T20:47:47.695Z,0.00
2018-11-25T20:48:48.153Z,0.00
2018-11-25T20:49:50.575Z,0.00
2018-11-25T20:50:46.139Z,0.00
2018-11-25T20:51:46.129Z,0.00
2018-11-25T20:52:46.125Z,0.00
2018-11-25T20:53:46.106Z,0.00
2018-11-25T20:54:46.095Z,0.00
2018-11-25T20:55:46.084Z,0.00
2018-11-25T20:56:46.068Z,0.00
2018-11-25T20:57:46.074Z,0.00
2018-11-25T20:58:46.050Z,0.00
2018-11-25T20:59:46.040Z,0.00
2018-11-25T21:00:46.029Z,0.00
2018-11-25T21:01:46.018Z,0.00
2018-11-25T21:02:46.001Z,0.00
2018-11-25T21:03:45.998Z,0.00
2018-11-25T21:04:45.987Z,0.00
2018-11-25T21:05:45.991Z,0.00
2018-11-25T21:06:45.963Z,0.00
2018-11-25T21:07:45.961Z,0.00
2018-11-25T21:08:45.932Z,0.00
2018-11-25T21:09:45.927Z,0.00
2018-11-25T21:10:45.918Z,0.00
2018-11-25T21:11:45.904Z,0.00
2018-11-25T21:12:45.908Z,0.00
2018-11-25T21:13:45.881Z,0.00
2018-11-25T21:14:45.870Z,0.00
2018-11-25T21:15:45.857Z,0.00
2018-11-25T21:16:45.855Z,0.00
2018-11-25T21:17:45.847Z,0.00
2018-11-25T21:18:45.824Z,0.00
2018-11-25T21:19:45.813Z,0.00
2018-11-25T21:20:51.109Z,0.00
2018-11-25T21:21:46.791Z,0.00
2018-11-25T21:22:45.786Z,0.00
2018-11-25T21:23:45.768Z,0.00
2018-11-25T21:24:45.755Z,0.00
2018-11-25T21:25:45.745Z,0.00
2018-11-25T21:26:45.735Z,0.00
2018-11-25T21:27:45.744Z,0.00
2018-11-25T21:28:45.716Z,0.00
2018-11-25T21:29:45.700Z,0.00
2018-11-25T21:30:45.689Z,0.00
2018-11-25T21:31:45.682Z,0.00
2018-11-25T21:32:45.684Z,0.00
2018-11-25T21:33:45.654Z,0.00
2018-11-25T21:34:45.644Z,0.00
2018-11-25T21:35:45.632Z,0.00
2018-11-25T21:36:45.626Z,0.00
2018-11-25T21:37:45.626Z,0.00
2018-11-25T21:38:45.610Z,0.00
2018-11-25T21:39:45.591Z,0.00
2018-11-25T21:40:45.582Z,0.00
2018-11-25T21:41:45.577Z,0.00
2018-11-25T21:42:45.571Z,0.00
2018-11-25T21:43:45.546Z,0.00
2018-11-25T21:44:45.534Z,0.00
2018-11-25T21:45:45.525Z,0.00
2018-11-25T21:46:45.512Z,0.00
2018-11-25T21:47:45.562Z,0.00
2018-11-25T21:48:47.543Z,0.00
2018-11-25T21:49:45.482Z,0.00
2018-11-25T21:50:45.471Z,0.00
2018-11-25T21:51:45.460Z,0.00
2018-11-25T21:52:45.455Z,0.00
2018-11-25T21:53:45.435Z,0.00
2018-11-25T21:54:45.427Z,0.00